Time;durP1;ratioP1;P1;durP2;ratioP2;P2;SDS_P1;SDS_P2;PMS_P1;PMS_P2;Temp;Humidity;BMP_temperature;BMP_pressure;BME280_temperature;BME280_humidity;BME280_pressure;Samples;Min_cycle;Max_cycle;Signal;HPM_P1;HPM_P2
2023/05/08 00:00:21;;;;;;;10.50;5.78;;;15.20;99.90;;;;;;5012724;28;20112;-48
2023/05/08 00:02:46;;;;;;;8.70;5.97;;;15.20;99.90;;;;;;5012304;28;20505;-49
2023/05/08 00:05:13;;;;;;;10.43;6.00;;;15.10;99.90;;;;;;5012329;28;20038;-48
2023/05/08 00:07:39;;;;;;;9.98;5.88;;;15.10;99.90;;;;;;5012183;28;20501;-47
2023/05/08 00:10:06;;;;;;;9.10;5.55;;;15.10;99.90;;;;;;5012198;28;20061;-47
2023/05/08 00:12:32;;;;;;;9.27;5.30;;;15.00;99.90;;;;;;5011948;28;20033;-48
2023/05/08 00:14:57;;;;;;;8.93;5.82;;;15.10;99.90;;;;;;5012178;28;20044;-46
2023/05/08 00:17:23;;;;;;;11.27;6.32;;;15.00;99.90;;;;;;5012282;28;20360;-51
2023/05/08 00:19:49;;;;;;;10.23;6.45;;;15.00;99.90;;;;;;5012512;28;20082;-47
2023/05/08 00:22:15;;;;;;;10.55;6.68;;;15.00;99.90;;;;;;5011529;28;20022;-50
2023/05/08 00:24:41;;;;;;;10.05;5.95;;;15.00;99.90;;;;;;5012282;28;20044;-47
2023/05/08 00:27:07;;;;;;;13.88;6.45;;;15.00;99.90;;;;;;5011616;28;20026;-47
2023/05/08 00:29:33;;;;;;;9.63;6.47;;;14.90;99.90;;;;;;5011853;28;20117;-49
2023/05/08 00:31:59;;;;;;;9.60;6.38;;;14.90;99.90;;;;;;5026259;28;20504;-49
2023/05/08 00:34:25;;;;;;;10.30;6.10;;;14.90;99.90;;;;;;5011517;28;20474;-46
2023/05/08 00:36:51;;;;;;;10.15;6.63;;;14.90;99.90;;;;;;5011493;28;20029;-47
2023/05/08 00:39:17;;;;;;;12.32;6.63;;;14.90;99.90;;;;;;5026703;28;20507;-47
2023/05/08 00:41:43;;;;;;;12.45;7.28;;;15.00;99.90;;;;;;5026129;28;20041;-48
2023/05/08 00:44:09;;;;;;;13.68;7.78;;;15.00;99.90;;;;;;5011493;28;20397;-47
2023/05/08 00:46:35;;;;;;;13.38;8.10;;;15.00;99.90;;;;;;5011953;28;20486;-49
2023/05/08 00:49:03;;;;;;;15.23;8.70;;;14.90;99.90;;;;;;5011428;28;20041;-47
2023/05/08 00:51:30;;;;;;;14.88;8.27;;;14.90;99.90;;;;;;5010909;28;20025;-48
2023/05/08 00:53:57;;;;;;;15.00;8.63;;;14.90;99.90;;;;;;5026511;28;20470;-48
2023/05/08 00:56:24;;;;;;;15.20;8.70;;;14.90;99.90;;;;;;5026566;28;20033;-48
2023/05/08 00:58:50;;;;;;;13.98;7.68;;;14.90;99.90;;;;;;5011437;28;20367;-50
2023/05/08 01:01:16;;;;;;;16.50;9.65;;;14.90;99.90;;;;;;5010751;28;20037;-49
2023/05/08 01:03:43;;;;;;;14.73;9.13;;;14.90;99.90;;;;;;5026216;28;20030;-47
2023/05/08 01:06:09;;;;;;;16.77;9.57;;;14.80;99.90;;;;;;5009657;28;20044;-46
2023/05/08 01:08:35;;;;;;;15.73;9.23;;;14.80;99.90;;;;;;5011296;28;20034;-49
2023/05/08 01:11:07;;;;;;;17.35;9.88;;;14.80;99.90;;;;;;5009290;28;20549;-47
2023/05/08 01:13:41;;;;;;;16.92;9.02;;;14.70;99.90;;;;;;5011026;28;20544;-50
2023/05/08 01:16:15;;;;;;;15.60;8.98;;;14.70;99.90;;;;;;5009809;28;20057;-46
2023/05/08 01:19:10;;;;;;;16.65;9.95;;;14.70;99.90;;;;;;5011051;28;20032;-47
2023/05/08 01:21:55;;;;;;;15.65;9.57;;;14.60;99.90;;;;;;5000012;28;20038;-48
2023/05/08 01:24:43;;;;;;;16.42;9.93;;;14.60;99.90;;;;;;5011381;28;20032;-47
2023/05/08 01:27:21;;;;;;;15.88;9.32;;;14.50;99.90;;;;;;5010941;28;20509;-47
2023/05/08 01:30:04;;;;;;;17.13;9.65;;;14.60;99.90;;;;;;5026201;28;20041;-48
2023/05/08 01:32:49;;;;;;;19.50;10.30;;;14.50;99.90;;;;;;5010621;28;20072;-48
2023/05/08 01:35:37;;;;;;;18.08;9.77;;;14.50;99.90;;;;;;5010861;28;20501;-46
2023/05/08 01:38:13;;;;;;;16.25;9.52;;;14.50;99.90;;;;;;5025954;28;20109;-46
2023/05/08 01:40:45;;;;;;;17.58;9.18;;;14.50;99.90;;;;;;5012918;28;20502;-46
2023/05/08 01:43:40;;;;;;;17.65;10.25;;;14.50;99.90;;;;;;5029848;28;20109;-46
2023/05/08 01:46:15;;;;;;;19.00;9.68;;;14.40;99.90;;;;;;5014784;28;20041;-46
2023/05/08 01:49:02;;;;;;;17.17;9.88;;;14.40;99.90;;;;;;5014661;28;20045;-46
2023/05/08 01:51:40;;;;;;;21.80;10.50;;;14.30;99.90;;;;;;5029165;28;20030;-46
2023/05/08 01:54:10;;;;;;;17.40;9.82;;;14.30;99.90;;;;;;5014558;28;20034;-46
2023/05/08 01:56:38;;;;;;;17.48;10.15;;;14.30;99.90;;;;;;5013326;28;20034;-46
2023/05/08 01:59:05;;;;;;;19.65;10.18;;;14.30;99.90;;;;;;5029675;28;20029;-46
2023/05/08 02:01:33;;;;;;;18.75;9.95;;;14.30;99.90;;;;;;5029093;28;20100;-48
2023/05/08 02:04:00;;;;;;;18.20;10.18;;;14.30;99.90;;;;;;5029479;28;20025;-46
2023/05/08 02:06:27;;;;;;;16.40;9.82;;;14.40;99.90;;;;;;5029306;28;20034;-45
2023/05/08 02:08:55;;;;;;;16.58;9.45;;;14.30;99.90;;;;;;5029403;28;20116;-47
2023/05/08 02:11:23;;;;;;;17.55;10.43;;;14.30;99.90;;;;;;5013808;28;20038;-47
2023/05/08 02:13:50;;;;;;;20.67;10.88;;;14.30;99.90;;;;;;5029360;28;20478;-46
2023/05/08 02:16:16;;;;;;;19.58;10.43;;;14.30;99.90;;;;;;5029448;28;20057;-48
2023/05/08 02:18:47;;;;;;;19.65;10.55;;;14.30;99.90;;;;;;5013985;28;20034;-47
2023/05/08 02:21:14;;;;;;;21.77;11.10;;;14.30;99.90;;;;;;5013564;28;20109;-47
2023/05/08 02:23:42;;;;;;;19.08;10.50;;;14.30;99.90;;;;;;5012648;28;20026;-47
2023/05/08 02:26:09;;;;;;;19.70;10.68;;;14.30;99.90;;;;;;5014004;28;20026;-47
2023/05/08 02:28:35;;;;;;;20.30;10.55;;;14.30;99.90;;;;;;5012580;28;20030;-46
2023/05/08 02:31:03;;;;;;;17.92;10.30;;;14.30;99.90;;;;;;5013251;28;20788;-46
2023/05/08 02:33:29;;;;;;;18.85;10.25;;;14.30;99.90;;;;;;5028958;28;20034;-46
2023/05/08 02:35:57;;;;;;;18.45;10.77;;;14.30;99.90;;;;;;5013904;28;20057;-46
2023/05/08 02:38:25;;;;;;;18.17;10.32;;;14.30;99.90;;;;;;5028913;28;20041;-46
2023/05/08 02:40:54;;;;;;;19.85;11.30;;;14.30;99.90;;;;;;5028515;28;20029;-47
2023/05/08 02:43:21;;;;;;;18.88;10.93;;;14.30;99.90;;;;;;5028785;28;20034;-46
2023/05/08 02:46:01;;;;;;;19.92;11.00;;;14.20;99.90;;;;;;5028702;28;20037;-47
2023/05/08 02:49:00;;;;;;;18.58;10.43;;;14.20;99.90;;;;;;5013811;28;20033;-46
2023/05/08 02:51:42;;;;;;;19.05;10.63;;;14.10;99.90;;;;;;5012836;28;20105;-47
2023/05/08 02:54:44;;;;;;;20.48;11.10;;;14.10;99.90;;;;;;5028696;28;20120;-46
2023/05/08 02:57:25;;;;;;;18.42;10.23;;;14.10;99.90;;;;;;5012219;28;20586;-47
2023/05/08 03:00:01;;;;;;;19.38;10.73;;;14.10;99.90;;;;;;5013378;28;20497;-46
2023/05/08 03:02:53;;;;;;;19.85;11.38;;;14.10;99.90;;;;;;5028513;28;20049;-46
2023/05/08 03:05:29;;;;;;;16.63;9.50;;;14.10;99.90;;;;;;5028372;28;20042;-46
2023/05/08 03:07:58;;;;;;;19.98;11.23;;;14.10;99.90;;;;;;5028521;28;20076;-47
2023/05/08 03:10:30;;;;;;;21.30;11.13;;;14.10;99.90;;;;;;5028179;28;20034;-46
2023/05/08 03:12:57;;;;;;;20.83;10.95;;;14.00;99.90;;;;;;5011748;28;20030;-46
2023/05/08 03:15:25;;;;;;;19.35;9.93;;;14.00;99.90;;;;;;5013362;28;20026;-46
2023/05/08 03:18:00;;;;;;;16.98;10.52;;;14.00;99.90;;;;;;5028375;28;20041;-46
2023/05/08 03:20:34;;;;;;;19.10;11.23;;;13.90;99.90;;;;;;5027987;28;20018;-47
2023/05/08 03:23:03;;;;;;;18.83;10.52;;;13.90;99.90;;;;;;5011412;28;20050;-48
2023/05/08 03:25:31;;;;;;;19.17;9.95;;;14.00;99.90;;;;;;5012915;28;20029;-50
2023/05/08 03:27:58;;;;;;;16.95;10.00;;;13.90;99.90;;;;;;5013407;28;20041;-48
2023/05/08 03:30:26;;;;;;;18.58;10.23;;;13.90;99.90;;;;;;5011304;28;20022;-47
2023/05/08 03:33:00;;;;;;;17.05;8.50;;;14.00;99.90;;;;;;5011426;28;20237;-47
2023/05/08 03:35:27;;;;;;;16.67;9.30;;;14.00;99.90;;;;;;5012956;28;20490;-48
2023/05/08 03:37:53;;;;;;;16.88;8.88;;;13.90;99.90;;;;;;5012884;28;20030;-47
2023/05/08 03:40:20;;;;;;;16.60;8.90;;;13.90;99.90;;;;;;5027903;28;20113;-46
2023/05/08 03:42:47;;;;;;;14.00;7.35;;;13.90;99.90;;;;;;5027786;28;20490;-47
2023/05/08 03:45:14;;;;;;;14.68;7.60;;;13.90;99.90;;;;;;5012851;28;20032;-47
2023/05/08 03:47:42;;;;;;;12.85;7.30;;;13.90;99.90;;;;;;5011455;28;20022;-50
2023/05/08 03:50:08;;;;;;;10.57;6.22;;;13.90;99.90;;;;;;5012275;28;20022;-48
2023/05/08 03:52:34;;;;;;;12.00;6.95;;;13.80;99.90;;;;;;5010719;28;20084;-48
2023/05/08 03:55:00;;;;;;;9.95;5.88;;;13.80;99.90;;;;;;5012408;28;20022;-48
2023/05/08 03:57:58;;;;;;;14.90;6.95;;;13.80;99.90;;;;;;5011073;28;20069;-47
2023/05/08 04:01:01;;;;;;;10.15;6.22;;;13.80;99.90;;;;;;5010527;28;20376;-49
2023/05/08 04:03:35;;;;;;;11.00;6.10;;;13.80;99.90;;;;;;5027033;28;20041;-48
2023/05/08 04:06:26;;;;;;;9.85;5.95;;;13.70;99.90;;;;;;5010964;28;20037;-49
2023/05/08 04:09:16;;;;;;;10.50;5.95;;;13.70;99.90;;;;;;5027139;28;20030;-49
2023/05/08 04:12:18;;;;;;;8.18;5.15;;;13.70;99.90;;;;;;5010195;28;20033;-50
2023/05/08 04:14:51;;;;;;;10.20;5.70;;;13.70;99.90;;;;;;4993287;28;20390;-51
2023/05/08 04:17:28;;;;;;;9.98;5.85;;;13.80;99.90;;;;;;5010642;28;20022;-46
2023/05/08 04:20:01;;;;;;;11.57;6.65;;;13.80;99.90;;;;;;5011897;28;20025;-47
2023/05/08 04:22:29;;;;;;;11.05;6.18;;;13.80;99.90;;;;;;5011635;28;20513;-47
2023/05/08 04:24:58;;;;;;;10.15;6.05;;;13.80;99.90;;;;;;5011856;28;20026;-46
2023/05/08 04:27:24;;;;;;;9.52;5.00;;;13.90;99.90;;;;;;5010781;28;20088;-48
2023/05/08 04:29:51;;;;;;;8.18;4.88;;;14.00;99.90;;;;;;5026818;28;20034;-47
2023/05/08 04:32:17;;;;;;;9.48;5.00;;;14.10;99.90;;;;;;5026158;28;20394;-51
2023/05/08 04:34:43;;;;;;;8.95;5.40;;;14.10;99.90;;;;;;5010350;28;20120;-46
2023/05/08 04:37:20;;;;;;;10.93;5.38;;;14.10;99.90;;;;;;5010205;28;20080;-45
2023/05/08 04:39:49;;;;;;;8.77;5.53;;;14.10;99.90;;;;;;5010201;28;20396;-46
2023/05/08 04:42:15;;;;;;;9.82;5.50;;;14.20;99.90;;;;;;5010958;28;20067;-46
2023/05/08 04:44:41;;;;;;;10.52;5.63;;;14.20;99.90;;;;;;5010096;28;20049;-45
2023/05/08 04:47:07;;;;;;;10.23;6.07;;;14.20;99.90;;;;;;5026600;28;20498;-46
2023/05/08 04:49:32;;;;;;;8.95;5.43;;;14.20;99.90;;;;;;5026559;28;20398;-47
2023/05/08 04:51:58;;;;;;;10.68;5.60;;;14.20;99.90;;;;;;5010711;28;20061;-46
2023/05/08 04:54:24;;;;;;;7.97;4.85;;;14.30;99.90;;;;;;5011373;28;20076;-46
2023/05/08 04:56:50;;;;;;;7.72;4.95;;;14.30;99.90;;;;;;5026556;28;20034;-47
2023/05/08 04:59:16;;;;;;;8.05;4.85;;;14.40;99.90;;;;;;5011402;28;20037;-46
2023/05/08 05:01:42;;;;;;;9.25;5.55;;;14.40;99.90;;;;;;5009452;28;20129;-46
2023/05/08 05:04:07;;;;;;;10.27;5.10;;;14.50;99.90;;;;;;5011139;28;20255;-47
2023/05/08 05:06:33;;;;;;;9.50;5.10;;;14.50;99.90;;;;;;5011060;28;20043;-47
2023/05/08 05:08:59;;;;;;;7.55;4.47;;;14.50;99.90;;;;;;5026296;28;20029;-46
2023/05/08 05:11:25;;;;;;;8.57;4.75;;;14.50;99.90;;;;;;5010452;28;20426;-48
2023/05/08 05:13:51;;;;;;;9.63;4.82;;;14.50;99.90;;;;;;5026147;28;20046;-49
2023/05/08 05:16:16;;;;;;;8.15;4.50;;;14.60;99.90;;;;;;5026221;28;20498;-47
2023/05/08 05:18:42;;;;;;;8.43;5.00;;;14.60;99.90;;;;;;5011029;28;20028;-51
2023/05/08 05:21:08;;;;;;;10.75;4.97;;;14.60;99.90;;;;;;5009259;28;20146;-48
2023/05/08 05:23:34;;;;;;;8.70;5.18;;;14.60;99.90;;;;;;5009687;28;20114;-48
2023/05/08 05:25:59;;;;;;;7.35;4.80;;;14.60;99.90;;;;;;5026134;28;20305;-48
2023/05/08 05:28:26;;;;;;;8.02;4.82;;;14.70;99.90;;;;;;5026167;28;20520;-46
2023/05/08 05:30:52;;;;;;;8.98;5.13;;;14.70;99.90;;;;;;5009351;28;20033;-51
2023/05/08 05:33:18;;;;;;;10.57;4.90;;;14.80;99.90;;;;;;5009490;28;20025;-48
2023/05/08 05:35:44;;;;;;;8.13;5.00;;;14.80;99.90;;;;;;5009681;28;20030;-48
2023/05/08 05:38:10;;;;;;;8.25;4.45;;;14.80;99.90;;;;;;5025933;28;20026;-48
2023/05/08 05:40:35;;;;;;;8.43;4.53;;;14.80;99.90;;;;;;5009256;28;20026;-47
2023/05/08 05:43:01;;;;;;;7.30;4.57;;;14.90;99.90;;;;;;5009299;28;20557;-49
2023/05/08 05:45:27;;;;;;;7.22;4.60;;;14.90;99.90;;;;;;5025989;28;20022;-47
2023/05/08 05:47:53;;;;;;;8.13;4.88;;;15.00;99.90;;;;;;5025916;28;20396;-48
2023/05/08 05:50:21;;;;;;;6.15;4.05;;;14.90;99.90;;;;;;5009088;28;20057;-49
2023/05/08 05:52:48;;;;;;;7.35;4.65;;;14.90;99.90;;;;;;5025535;28;20030;-46
2023/05/08 05:55:13;;;;;;;8.38;4.78;;;15.00;99.90;;;;;;5025721;28;20474;-46
2023/05/08 05:57:39;;;;;;;7.40;4.57;;;15.10;99.90;;;;;;5010722;28;20108;-49
2023/05/08 06:00:06;;;;;;;8.70;5.20;;;15.10;99.90;;;;;;5025562;28;20425;-47
2023/05/08 06:02:40;;;;;;;7.38;4.97;;;15.20;99.90;;;;;;5010441;28;20061;-48
2023/05/08 06:05:08;;;;;;;8.77;5.00;;;15.20;99.90;;;;;;5009236;28;20038;-48
2023/05/08 06:07:34;;;;;;;8.15;4.75;;;15.30;99.90;;;;;;5025807;28;20445;-46
2023/05/08 06:10:02;;;;;;;6.38;4.38;;;15.50;99.90;;;;;;5008958;28;20457;-47
2023/05/08 06:12:28;;;;;;;7.95;4.88;;;15.70;99.90;;;;;;5008961;28;20033;-48
2023/05/08 06:14:54;;;;;;;7.95;4.43;;;15.80;99.90;;;;;;5009223;28;20302;-46
2023/05/08 06:17:21;;;;;;;7.05;4.65;;;15.90;99.90;;;;;;5009345;28;20033;-50
2023/05/08 06:19:49;;;;;;;8.68;4.63;;;16.00;99.90;;;;;;5025655;28;20041;-47
2023/05/08 06:22:19;;;;;;;6.13;3.93;;;16.00;99.90;;;;;;5009950;28;20229;-49
2023/05/08 06:24:44;;;;;;;6.55;4.68;;;16.10;99.90;;;;;;5011016;28;20030;-49
2023/05/08 06:27:10;;;;;;;7.35;4.60;;;16.20;99.90;;;;;;5014046;28;20037;-48
2023/05/08 06:29:36;;;;;;;6.72;4.20;;;16.10;99.90;;;;;;5013938;28;20038;-50
2023/05/08 06:32:02;;;;;;;9.23;4.95;;;16.20;99.90;;;;;;5013391;28;20091;-47
2023/05/08 06:34:28;;;;;;;7.50;4.80;;;16.30;99.90;;;;;;5013899;28;20107;-47
2023/05/08 06:36:53;;;;;;;6.63;4.57;;;16.30;99.90;;;;;;5013823;28;20029;-47
2023/05/08 06:39:19;;;;;;;6.30;4.05;;;16.50;99.90;;;;;;5013912;28;20213;-49
2023/05/08 06:41:48;;;;;;;6.05;4.25;;;16.70;99.90;;;;;;5013362;28;20509;-46
2023/05/08 06:44:22;;;;;;;6.60;4.40;;;16.80;99.90;;;;;;5028950;28;20494;-46
2023/05/08 06:46:48;;;;;;;5.70;3.50;;;16.90;99.90;;;;;;5013771;28;20088;-47
2023/05/08 06:49:14;;;;;;;5.25;3.53;;;16.90;99.90;;;;;;5014124;28;20026;-47
2023/05/08 06:51:40;;;;;;;5.80;3.90;;;16.80;99.90;;;;;;5012939;28;20100;-47
2023/05/08 06:54:07;;;;;;;6.50;4.53;;;16.90;99.90;;;;;;5013828;28;20117;-48
2023/05/08 06:56:33;;;;;;;6.28;3.90;;;16.90;99.90;;;;;;5013767;28;20034;-47
2023/05/08 06:58:59;;;;;;;5.85;3.90;;;17.20;99.90;;;;;;5013570;28;20034;-47
2023/05/08 07:01:25;;;;;;;5.85;3.33;;;17.60;99.90;;;;;;5013001;28;20540;-47
2023/05/08 07:03:51;;;;;;;18.92;11.25;;;18.10;99.90;;;;;;5013556;28;20034;-47
2023/05/08 07:06:17;;;;;;;8.80;5.18;;;18.70;99.90;;;;;;5013255;28;20038;-46
2023/05/08 07:08:42;;;;;;;6.57;4.18;;;18.90;99.90;;;;;;5013403;28;20057;-48
2023/05/08 07:11:08;;;;;;;7.63;4.82;;;19.00;99.90;;;;;;5012861;28;20045;-47
2023/05/08 07:13:35;;;;;;;6.05;3.65;;;19.10;99.90;;;;;;5013170;28;20037;-48
2023/05/08 07:16:01;;;;;;;8.88;5.25;;;19.10;99.90;;;;;;5013182;28;20109;-50
2023/05/08 07:18:27;;;;;;;6.93;3.75;;;19.50;99.90;;;;;;5013139;28;20057;-51
2023/05/08 07:20:52;;;;;;;4.32;3.13;;;19.80;99.90;;;;;;5012730;28;20038;-47
2023/05/08 07:23:18;;;;;;;4.93;3.28;;;19.70;99.90;;;;;;5012912;28;20038;-47
2023/05/08 07:25:44;;;;;;;6.38;4.20;;;19.60;99.90;;;;;;5013019;28;20026;-51
2023/05/08 07:28:10;;;;;;;5.80;3.38;;;19.50;99.90;;;;;;5012703;28;20045;-49
2023/05/08 07:30:36;;;;;;;6.90;4.22;;;19.40;99.90;;;;;;5012544;28;20029;-48
2023/05/08 07:33:02;;;;;;;4.85;3.45;;;19.20;99.90;;;;;;5012562;28;20123;-49
2023/05/08 07:35:28;;;;;;;6.40;3.85;;;19.00;99.90;;;;;;5012611;28;20037;-50
2023/05/08 07:37:54;;;;;;;6.68;4.00;;;18.90;99.90;;;;;;5011878;28;20121;-47
2023/05/08 07:40:19;;;;;;;6.47;4.10;;;18.90;99.90;;;;;;5012806;28;20073;-49
2023/05/08 07:42:45;;;;;;;5.43;3.80;;;18.80;99.90;;;;;;5012308;28;20034;-48
2023/05/08 07:45:12;;;;;;;8.15;4.57;;;19.00;99.90;;;;;;5012506;28;20037;-47
2023/05/08 07:47:38;;;;;;;8.27;5.03;;;19.00;99.90;;;;;;5012538;28;20093;-46
2023/05/08 07:50:05;;;;;;;7.28;4.45;;;19.20;99.90;;;;;;5012241;28;20038;-47
2023/05/08 07:52:31;;;;;;;6.22;4.28;;;19.10;99.90;;;;;;5012484;28;20073;-47
2023/05/08 07:54:57;;;;;;;9.35;4.45;;;19.10;99.90;;;;;;5012473;28;20494;-47
2023/05/08 07:57:23;;;;;;;8.18;5.13;;;18.90;99.90;;;;;;5011472;28;20089;-50
2023/05/08 07:59:49;;;;;;;6.95;4.80;;;19.00;99.90;;;;;;5012334;28;20037;-49
2023/05/08 08:02:15;;;;;;;8.15;4.78;;;19.00;99.90;;;;;;5011642;28;20037;-51
2023/05/08 08:04:40;;;;;;;8.73;5.72;;;19.10;99.90;;;;;;5012008;28;20455;-46
2023/05/08 08:07:06;;;;;;;7.10;4.95;;;19.30;99.90;;;;;;5027521;28;20084;-47
2023/05/08 08:09:32;;;;;;;6.40;4.38;;;19.40;99.90;;;;;;5012086;28;20026;-46
2023/05/08 08:11:57;;;;;;;7.45;4.75;;;19.40;99.90;;;;;;5011576;28;20124;-47
2023/05/08 08:14:23;;;;;;;7.90;5.18;;;19.50;99.90;;;;;;5012123;28;20088;-48
2023/05/08 08:16:49;;;;;;;7.55;4.75;;;19.30;99.90;;;;;;5012011;28;20030;-46
2023/05/08 08:19:14;;;;;;;9.73;5.20;;;19.30;99.90;;;;;;5012088;28;20665;-51
2023/05/08 08:21:43;;;;;;;8.18;5.05;;;19.10;99.90;;;;;;5011528;28;20057;-47
2023/05/08 08:24:09;;;;;;;6.63;4.78;;;19.00;99.90;;;;;;5011880;28;20036;-48
2023/05/08 08:26:35;;;;;;;8.20;5.18;;;18.70;99.90;;;;;;5011760;28;20025;-47
2023/05/08 08:29:01;;;;;;;8.30;5.78;;;18.70;99.90;;;;;;5011837;28;20030;-47
2023/05/08 08:31:26;;;;;;;8.20;5.95;;;18.50;99.90;;;;;;5011114;28;20109;-48
2023/05/08 08:33:52;;;;;;;8.85;6.05;;;18.50;99.90;;;;;;5011731;28;20406;-48
2023/05/08 08:36:18;;;;;;;9.57;6.43;;;18.50;99.90;;;;;;5011603;28;20034;-47
2023/05/08 08:38:44;;;;;;;9.70;6.07;;;18.60;99.90;;;;;;5011796;28;20022;-50
2023/05/08 08:41:13;;;;;;;10.40;7.05;;;18.70;99.90;;;;;;5011013;28;20065;-47
2023/05/08 08:43:42;;;;;;;9.40;5.72;;;19.00;99.90;;;;;;5011441;28;20479;-47
2023/05/08 08:46:14;;;;;;;9.52;6.40;;;18.90;99.90;;;;;;5011387;28;20033;-48
2023/05/08 08:48:46;;;;;;;11.68;6.50;;;19.00;99.90;;;;;;5011168;28;20042;-50
2023/05/08 08:51:23;;;;;;;8.30;6.20;;;19.10;99.90;;;;;;5009604;28;20029;-47
2023/05/08 08:53:57;;;;;;;9.65;6.28;;;19.10;99.90;;;;;;5011702;28;20033;-47
2023/05/08 08:56:23;;;;;;;10.50;6.15;;;19.20;99.90;;;;;;5011810;28;20588;-49
2023/05/08 08:59:00;;;;;;;9.18;5.85;;;19.30;99.90;;;;;;5011747;28;20045;-49
2023/05/08 09:01:28;;;;;;;7.10;5.00;;;19.30;99.90;;;;;;5010888;28;20176;-47
2023/05/08 09:03:56;;;;;;;7.30;4.68;;;19.40;99.90;;;;;;5011340;28;20030;-48
2023/05/08 09:06:22;;;;;;;5.10;3.53;;;19.50;99.90;;;;;;5011496;28;20501;-50
2023/05/08 09:08:49;;;;;;;6.75;3.58;;;19.50;99.90;;;;;;5010408;28;20034;-50
2023/05/08 09:11:14;;;;;;;5.38;3.70;;;19.60;99.90;;;;;;5011083;28;20538;-52
2023/05/08 09:13:40;;;;;;;5.50;3.55;;;19.50;99.90;;;;;;5011797;28;20122;-52
2023/05/08 09:16:06;;;;;;;6.68;4.25;;;19.40;99.90;;;;;;5011869;28;20026;-48
2023/05/08 09:18:32;;;;;;;7.07;4.40;;;19.40;99.90;;;;;;5011308;28;20119;-51
2023/05/08 09:21:00;;;;;;;6.95;3.70;;;19.40;99.90;;;;;;5010628;28;20037;-50
2023/05/08 09:23:26;;;;;;;5.53;3.78;;;19.50;99.90;;;;;;5010854;28;20030;-49
2023/05/08 09:25:52;;;;;;;5.28;3.47;;;19.60;99.90;;;;;;5010888;28;20045;-52
2023/05/08 09:28:23;;;;;;;4.80;2.83;;;19.50;99.90;;;;;;5011004;28;20049;-48
2023/05/08 09:30:54;;;;;;;6.20;2.85;;;19.40;99.90;;;;;;5010583;28;20088;-46
2023/05/08 09:33:22;;;;;;;4.43;2.70;;;19.40;99.90;;;;;;5010901;28;20034;-49
2023/05/08 09:35:48;;;;;;;4.18;2.13;;;19.40;99.90;;;;;;5010898;28;20041;-51
2023/05/08 09:38:42;;;;;;;4.05;1.80;;;19.50;99.90;;;;;;5026265;28;20038;-50
2023/05/08 09:41:14;;;;;;;3.78;2.10;;;19.50;99.90;;;;;;5010147;28;20056;-52
2023/05/08 09:43:42;;;;;;;3.22;2.25;;;19.60;99.90;;;;;;5010828;28;20033;-48
2023/05/08 09:46:24;;;;;;;2.78;1.40;;;19.60;99.90;;;;;;5010929;28;20697;-49
2023/05/08 09:48:55;;;;;;;1.60;1.30;;;19.60;99.90;;;;;;5010788;28;20117;-48
2023/05/08 09:51:21;;;;;;;2.67;1.60;;;19.60;99.90;;;;;;5010190;28;20037;-50
2023/05/08 09:53:53;;;;;;;5.97;2.33;;;19.40;99.90;;;;;;5010652;28;20018;-51
2023/05/08 09:56:36;;;;;;;2.80;1.73;;;19.40;99.90;;;;;;5010612;28;20421;-51
2023/05/08 09:59:03;;;;;;;2.45;1.90;;;19.40;99.90;;;;;;5010572;28;20026;-51
2023/05/08 10:01:34;;;;;;;2.65;1.60;;;19.30;99.90;;;;;;5013523;28;20052;-50
2023/05/08 10:04:01;;;;;;;5.13;2.55;;;19.30;99.90;;;;;;5014467;28;20030;-46
2023/05/08 10:06:28;;;;;;;3.95;2.08;;;19.40;99.90;;;;;;5014249;28;20189;-51
2023/05/08 10:09:13;;;;;;;4.70;3.15;;;19.40;99.90;;;;;;5014337;28;20077;-48
2023/05/08 10:11:40;;;;;;;5.57;2.97;;;19.30;99.90;;;;;;5013904;28;20118;-50
2023/05/08 10:14:06;;;;;;;5.88;3.50;;;19.40;99.90;;;;;;5014473;28;20030;-48
2023/05/08 10:16:45;;;;;;;3.45;2.40;;;19.40;99.90;;;;;;5014392;28;20041;-47
2023/05/08 10:19:14;;;;;;;8.27;3.67;;;19.40;99.90;;;;;;5014210;28;20092;-48
2023/05/08 10:21:43;;;;;;;7.13;4.35;;;19.50;99.90;;;;;;5013664;28;20038;-46
2023/05/08 10:24:26;;;;;;;5.60;3.65;;;19.60;99.90;;;;;;5014004;28;20046;-47
2023/05/08 10:27:11;;;;;;;7.07;4.40;;;19.60;99.90;;;;;;5014157;28;20109;-49
2023/05/08 10:29:58;;;;;;;6.45;3.90;;;19.60;99.90;;;;;;5014344;28;20445;-48
2023/05/08 10:32:26;;;;;;;6.80;3.08;;;19.60;99.90;;;;;;5013723;28;20038;-48
2023/05/08 10:34:57;;;;;;;4.32;2.47;;;19.60;99.90;;;;;;5014358;28;20475;-47
2023/05/08 10:37:23;;;;;;;4.50;2.90;;;19.40;99.90;;;;;;5014214;28;20026;-50
2023/05/08 10:39:50;;;;;;;4.65;2.50;;;19.30;99.90;;;;;;5012757;28;20328;-49
2023/05/08 10:42:17;;;;;;;4.60;2.95;;;19.20;99.90;;;;;;5013823;28;20034;-50
2023/05/08 10:44:43;;;;;;;5.05;3.00;;;19.20;99.90;;;;;;5014074;28;20072;-52
2023/05/08 10:47:26;;;;;;;5.43;2.83;;;19.20;99.90;;;;;;5013817;28;20490;-50
2023/05/08 10:50:01;;;;;;;4.60;3.30;;;19.00;99.90;;;;;;5014190;28;20364;-48
2023/05/08 10:52:51;;;;;;;6.07;3.60;;;19.10;99.90;;;;;;5013280;28;20030;-50
2023/05/08 10:55:23;;;;;;;5.43;3.47;;;19.30;99.90;;;;;;5013570;28;20030;-50
2023/05/08 10:58:16;;;;;;;6.72;3.70;;;19.30;99.90;;;;;;5013702;28;20045;-51
2023/05/08 11:00:59;;;;;;;5.78;3.67;;;19.60;99.90;;;;;;5013231;28;20533;-49
2023/05/08 11:03:26;;;;;;;5.50;3.53;;;20.00;99.90;;;;;;5013569;28;20395;-48
2023/05/08 11:05:55;;;;;;;6.47;3.63;;;20.20;99.90;;;;;;5013985;28;20527;-49
2023/05/08 11:08:26;;;;;;;4.55;3.30;;;20.40;99.90;;;;;;5013638;28;20037;-52
2023/05/08 11:10:58;;;;;;;5.93;3.22;;;20.60;99.90;;;;;;5012875;28;20594;-50
2023/05/08 11:13:34;;;;;;;5.03;3.30;;;20.80;99.90;;;;;;5013245;28;20517;-50
2023/05/08 11:16:00;;;;;;;5.22;3.22;;;21.00;99.90;;;;;;5013259;28;20075;-49
2023/05/08 11:18:26;;;;;;;6.65;2.97;;;21.30;99.90;;;;;;5013079;28;20032;-49
2023/05/08 11:20:58;;;;;;;5.50;3.25;;;21.20;99.90;;;;;;5012880;28;20034;-49
2023/05/08 11:23:31;;;;;;;4.55;3.15;;;21.20;99.90;;;;;;5012806;28;20041;-51
2023/05/08 11:26:11;;;;;;;5.10;3.50;;;21.20;99.90;;;;;;5012906;28;20029;-49
2023/05/08 11:28:52;;;;;;;5.53;3.78;;;21.20;99.90;;;;;;5012796;28;20030;-51
2023/05/08 11:31:18;;;;;;;4.90;3.60;;;21.20;99.90;;;;;;5012283;28;20030;-49
2023/05/08 11:33:44;;;;;;;5.63;3.67;;;21.00;99.90;;;;;;5012674;28;20033;-47
2023/05/08 11:36:19;;;;;;;6.10;3.72;;;21.10;99.90;;;;;;5012681;28;20034;-47
2023/05/08 11:39:11;;;;;;;6.55;4.30;;;20.90;99.90;;;;;;5012624;28;20045;-47
2023/05/08 11:41:38;;;;;;;5.93;4.07;;;20.90;99.90;;;;;;5012122;28;20033;-48
2023/05/08 11:44:04;;;;;;;6.88;4.50;;;20.80;99.90;;;;;;5012609;28;20034;-47
2023/05/08 11:47:02;;;;;;;6.55;4.53;;;20.60;99.90;;;;;;5012541;28;20426;-47
2023/05/08 11:49:28;;;;;;;6.78;4.40;;;20.70;99.90;;;;;;5011706;28;20053;-48
2023/05/08 11:51:57;;;;;;;7.13;4.57;;;20.60;99.90;;;;;;5011784;28;20037;-49
2023/05/08 11:54:24;;;;;;;7.22;4.50;;;20.70;99.90;;;;;;5012411;28;20037;-48
2023/05/08 11:56:52;;;;;;;6.05;4.20;;;20.70;99.90;;;;;;5012401;28;20034;-48
2023/05/08 11:59:19;;;;;;;6.55;4.30;;;20.70;99.90;;;;;;5011107;28;20033;-48
2023/05/08 12:01:48;;;;;;;5.13;3.55;;;20.60;99.90;;;;;;5011803;28;20033;-48
2023/05/08 12:04:13;;;;;;;4.43;3.40;;;20.60;99.90;;;;;;5012250;28;20125;-49
2023/05/08 12:06:40;;;;;;;4.55;3.10;;;20.70;99.90;;;;;;5012092;28;20116;-48
2023/05/08 12:09:16;;;;;;;4.40;2.85;;;20.80;99.90;;;;;;5012430;28;20217;-49
2023/05/08 12:11:44;;;;;;;4.60;2.97;;;20.70;99.90;;;;;;5011560;28;20033;-50
2023/05/08 12:14:11;;;;;;;3.78;2.60;;;20.80;99.90;;;;;;5012108;28;20030;-48
2023/05/08 12:16:38;;;;;;;4.70;2.60;;;20.70;99.90;;;;;;5011928;28;20033;-48
2023/05/08 12:19:09;;;;;;;4.63;2.83;;;20.70;99.90;;;;;;5012067;28;20057;-48
2023/05/08 12:21:35;;;;;;;4.18;2.67;;;20.70;99.90;;;;;;5011402;28;20088;-49
2023/05/08 12:24:09;;;;;;;4.80;2.88;;;20.70;99.90;;;;;;5011283;28;20434;-49
2023/05/08 12:26:39;;;;;;;3.47;2.55;;;20.70;99.90;;;;;;5011909;28;20076;-47
2023/05/08 12:29:06;;;;;;;3.33;2.33;;;20.70;99.90;;;;;;5011648;28;20030;-47
2023/05/08 12:31:34;;;;;;;4.28;2.60;;;20.70;99.90;;;;;;5011135;28;20490;-48
2023/05/08 12:34:04;;;;;;;3.67;2.43;;;20.50;99.90;;;;;;5011805;28;20033;-48
2023/05/08 12:36:34;;;;;;;3.45;2.60;;;20.70;99.90;;;;;;5011554;28;20088;-49
2023/05/08 12:39:17;;;;;;;3.55;2.47;;;20.60;99.90;;;;;;5011644;28;20467;-48
2023/05/08 12:41:50;;;;;;;5.70;2.60;;;20.60;99.90;;;;;;5011168;28;20254;-48
2023/05/08 12:44:21;;;;;;;4.82;2.33;;;20.60;99.90;;;;;;5011673;28;20541;-48
2023/05/08 12:46:51;;;;;;;3.83;2.40;;;20.60;99.90;;;;;;5011685;28;20037;-47
2023/05/08 12:49:28;;;;;;;3.20;2.17;;;20.50;99.90;;;;;;5011504;28;20103;-47
2023/05/08 12:52:08;;;;;;;4.13;2.40;;;20.50;99.90;;;;;;5010586;28;20029;-49
2023/05/08 12:54:35;;;;;;;3.25;2.30;;;20.60;99.90;;;;;;5011450;28;20044;-49
2023/05/08 12:57:05;;;;;;;3.67;2.13;;;20.70;99.90;;;;;;5011209;28;20033;-49